createdAt,value
2019-02-07T00:00:27.593Z,6.10
2019-02-07T00:02:57.029Z,6.20
2019-02-07T00:05:24.622Z,6.10
2019-02-07T00:07:52.048Z,6.10
2019-02-07T00:10:20.147Z,6.20
2019-02-07T00:12:47.738Z,6.20
2019-02-07T00:15:16.185Z,6.20
2019-02-07T00:17:43.583Z,6.10
2019-02-07T00:20:11.467Z,6.10
2019-02-07T00:22:39.420Z,6.10
2019-02-07T00:25:08.579Z,6.10
2019-02-07T00:27:36.197Z,6.10
2019-02-07T00:30:05.941Z,6.00
2019-02-07T00:32:33.638Z,6.10
2019-02-07T00:35:01.189Z,6.00
2019-02-07T00:37:28.690Z,6.10
2019-02-07T00:39:56.162Z,6.00
2019-02-07T00:42:23.695Z,6.00
2019-02-07T00:44:52.462Z,6.00
2019-02-07T00:47:20.543Z,6.00
2019-02-07T00:49:48.134Z,6.00
2019-02-07T00:52:15.751Z,6.00
2019-02-07T00:54:43.188Z,6.00
2019-02-07T00:57:10.831Z,6.00
2019-02-07T00:59:38.339Z,6.00
2019-02-07T01:02:06.370Z,6.00
2019-02-07T01:04:34.325Z,6.00
2019-02-07T01:07:02.394Z,6.00
2019-02-07T01:09:30.064Z,6.00
2019-02-07T01:11:57.665Z,6.00
2019-02-07T01:14:25.462Z,5.90
2019-02-07T01:16:53.008Z,5.90
2019-02-07T01:19:20.587Z,5.90
2019-02-07T01:21:48.595Z,5.90
2019-02-07T01:24:16.287Z,5.90
2019-02-07T01:26:43.759Z,5.90
2019-02-07T01:29:11.250Z,5.90
2019-02-07T01:31:38.752Z,5.90
2019-02-07T01:34:06.454Z,5.90
2019-02-07T01:36:34.146Z,5.90
2019-02-07T01:39:01.860Z,5.90
2019-02-07T01:41:31.399Z,5.90
2019-02-07T01:43:58.909Z,5.90
2019-02-07T01:46:37.697Z,5.90
2019-02-07T01:49:06.686Z,5.90
2019-02-07T01:51:34.383Z,5.90
2019-02-07T01:54:01.986Z,5.90
2019-02-07T01:56:29.682Z,5.80
2019-02-07T01:58:57.195Z,5.80
2019-02-07T02:01:24.658Z,5.80
2019-02-07T02:03:52.235Z,5.80
2019-02-07T02:06:19.688Z,5.80
2019-02-07T02:08:48.405Z,5.80
2019-02-07T02:11:15.967Z,5.80
2019-02-07T02:13:44.598Z,5.80
2019-02-07T02:16:12.054Z,5.80
2019-02-07T02:18:39.811Z,5.80
2019-02-07T02:21:07.274Z,5.80
2019-02-07T02:23:34.731Z,5.80
2019-02-07T02:26:02.285Z,5.80
2019-02-07T02:28:29.711Z,5.80
2019-02-07T02:30:58.319Z,5.80
2019-02-07T02:33:25.939Z,5.80
2019-02-07T02:35:53.465Z,5.80
2019-02-07T02:38:21.065Z,5.80
2019-02-07T02:40:48.711Z,5.80
2019-02-07T02:43:16.415Z,5.80
2019-02-07T02:45:44.198Z,5.80
2019-02-07T02:48:11.797Z,5.80
2019-02-07T02:50:39.429Z,5.80
2019-02-07T02:53:07.097Z,5.80
2019-02-07T02:55:39.906Z,5.80
2019-02-07T02:58:07.583Z,5.80
2019-02-07T03:01:12.983Z,5.80
2019-02-07T03:04:00.096Z,5.80
2019-02-07T03:06:44.723Z,5.80
2019-02-07T03:09:21.543Z,5.80
2019-02-07T03:12:08.633Z,5.80
2019-02-07T03:14:53.238Z,5.80
2019-02-07T03:17:42.906Z,5.80
2019-02-07T03:20:33.437Z,5.80
2019-02-07T03:23:29.543Z,5.80
2019-02-07T03:26:15.415Z,5.80
2019-02-07T03:28:56.141Z,5.70
2019-02-07T03:31:36.077Z,5.70
2019-02-07T03:34:21.930Z,5.80
2019-02-07T03:37:18.276Z,5.70
2019-02-07T03:40:05.443Z,5.80
2019-02-07T03:42:49.790Z,5.70
2019-02-07T03:45:42.740Z,5.70
2019-02-07T03:48:19.589Z,5.70
2019-02-07T03:51:09.450Z,5.70
2019-02-07T03:53:59.331Z,5.70
2019-02-07T03:56:45.399Z,5.80
2019-02-07T03:59:33.567Z,5.70
2019-02-07T04:02:23.490Z,5.70
2019-02-07T04:05:15.089Z,5.70
2019-02-07T04:08:13.935Z,5.70
2019-02-07T04:10:59.606Z,5.70
2019-02-07T04:13:38.009Z,5.70
2019-02-07T04:16:15.491Z,5.70
2019-02-07T04:19:05.405Z,5.70
2019-02-07T04:22:04.072Z,5.70
2019-02-07T04:24:49.776Z,5.70
2019-02-07T04:27:33.998Z,5.70
2019-02-07T04:30:19.935Z,5.70
2019-02-07T04:33:22.138Z,5.70
2019-02-07T04:36:15.592Z,5.70
2019-02-07T04:38:55.935Z,5.70
2019-02-07T04:41:55.055Z,5.70
2019-02-07T04:44:43.056Z,5.60
2019-02-07T04:47:43.717Z,5.70
2019-02-07T04:50:32.476Z,5.60
2019-02-07T04:53:31.574Z,5.70
2019-02-07T04:56:19.165Z,5.60
2019-02-07T04:59:05.252Z,5.60
2019-02-07T05:01:52.201Z,5.70
2019-02-07T05:04:26.746Z,5.70
2019-02-07T05:07:19.930Z,5.60
2019-02-07T05:10:10.442Z,5.70
2019-02-07T05:13:09.900Z,5.70
2019-02-07T05:16:00.167Z,5.80
2019-02-07T05:18:45.798Z,5.80
2019-02-07T05:21:36.657Z,5.70
2019-02-07T05:24:15.478Z,5.70
2019-02-07T05:26:50.045Z,5.70
2019-02-07T05:29:35.793Z,5.70
2019-02-07T05:32:22.026Z,5.70
2019-02-07T05:35:09.181Z,5.60
2019-02-07T05:37:54.367Z,5.60
2019-02-07T05:40:35.764Z,5.60
2019-02-07T05:43:32.062Z,5.60
2019-02-07T05:46:07.771Z,5.60
2019-02-07T05:48:57.908Z,5.60
2019-02-07T05:51:44.399Z,5.60
2019-02-07T05:55:01.554Z,5.60
2019-02-07T05:57:51.649Z,5.60
2019-02-07T06:00:38.889Z,5.60
2019-02-07T06:03:29.135Z,5.60
2019-02-07T06:06:15.054Z,5.60
2019-02-07T06:09:09.313Z,5.60
2019-02-07T06:15:08.240Z,5.60
2019-02-07T06:17:58.439Z,5.50
2019-02-07T06:20:39.162Z,5.60
2019-02-07T06:23:30.263Z,5.60
2019-02-07T06:26:17.339Z,5.60
2019-02-07T06:28:59.453Z,5.60
2019-02-07T06:31:37.671Z,5.70
2019-02-07T06:34:31.803Z,5.70
2019-02-07T06:37:18.043Z,5.70
2019-02-07T06:39:55.228Z,5.70
2019-02-07T06:42:48.040Z,5.70
2019-02-07T06:45:36.756Z,5.60
2019-02-07T06:48:22.647Z,5.70
2019-02-07T06:51:08.311Z,5.60
2019-02-07T06:53:55.817Z,5.60
2019-02-07T06:56:43.127Z,5.60
2019-02-07T06:59:32.779Z,5.60
2019-02-07T07:02:18.766Z,5.60
2019-02-07T07:04:57.797Z,5.60
2019-02-07T07:07:58.713Z,5.60
2019-02-07T07:10:46.038Z,5.60
2019-02-07T07:13:26.313Z,5.60
2019-02-07T07:16:13.429Z,5.60
2019-02-07T07:19:03.688Z,5.70
2019-02-07T07:21:49.117Z,5.70
2019-02-07T07:24:51.625Z,5.70
2019-02-07T07:27:46.815Z,5.70
2019-02-07T07:30:43.380Z,5.70
2019-02-07T07:33:30.753Z,5.70
2019-02-07T07:36:20.701Z,5.70
2019-02-07T07:39:00.728Z,5.70
2019-02-07T07:41:59.791Z,5.70
2019-02-07T07:44:52.991Z,5.80
2019-02-07T07:47:43.119Z,5.80
2019-02-07T07:50:24.354Z,5.80
2019-02-07T07:53:05.983Z,5.80
2019-02-07T07:55:59.530Z,5.80
2019-02-07T07:58:46.703Z,5.90
2019-02-07T08:01:32.956Z,5.90
2019-02-07T08:04:08.125Z,5.90
2019-02-07T08:06:53.780Z,5.90
2019-02-07T08:09:43.615Z,5.90
2019-02-07T08:12:31.621Z,5.90
2019-02-07T08:15:10.422Z,6.00
2019-02-07T08:18:12.964Z,6.00
2019-02-07T08:21:00.213Z,6.00
2019-02-07T08:23:50.335Z,6.00
2019-02-07T08:26:37.479Z,6.00
2019-02-07T08:29:17.102Z,6.00
2019-02-07T08:32:04.214Z,6.10
2019-02-07T08:34:51.774Z,6.10
2019-02-07T08:37:41.949Z,6.10
2019-02-07T08:40:18.611Z,6.10
2019-02-07T08:43:02.562Z,6.10
2019-02-07T08:45:48.579Z,6.10
2019-02-07T08:48:24.726Z,6.10
2019-02-07T08:51:01.808Z,6.20
2019-02-07T08:53:54.972Z,6.20
2019-02-07T08:56:40.782Z,6.20
2019-02-07T08:59:33.709Z,6.30
2019-02-07T09:02:12.323Z,6.30
2019-02-07T09:05:14.907Z,6.30
2019-02-07T09:07:54.491Z,6.40
2019-02-07T09:10:47.379Z,6.40
2019-02-07T09:13:43.464Z,6.40
2019-02-07T09:16:29.324Z,6.40
2019-02-07T09:19:11.290Z,6.40
2019-02-07T09:22:01.593Z,6.50
2019-02-07T09:24:47.193Z,6.50
2019-02-07T09:27:34.676Z,6.50
2019-02-07T09:30:21.105Z,6.60
2019-02-07T09:33:07.003Z,6.60
2019-02-07T09:36:04.972Z,6.60
2019-02-07T09:39:01.183Z,6.60
2019-02-07T09:41:54.388Z,6.60
2019-02-07T09:44:40.110Z,6.70
2019-02-07T09:47:16.537Z,6.70
2019-02-07T09:50:04.171Z,6.70
2019-02-07T09:52:54.391Z,6.70
2019-02-07T09:55:40.132Z,6.80
2019-02-07T09:58:26.150Z,6.80
2019-02-07T10:01:13.208Z,6.80
2019-02-07T10:03:58.392Z,6.80
2019-02-07T10:06:44.540Z,6.80
2019-02-07T10:09:30.242Z,6.80
2019-02-07T10:12:16.044Z,6.90
2019-02-07T10:15:14.263Z,6.90
2019-02-07T10:17:52.132Z,6.90
2019-02-07T10:20:38.063Z,7.00
2019-02-07T10:23:18.776Z,7.00
2019-02-07T10:26:04.221Z,7.00
2019-02-07T10:29:09.650Z,7.00
2019-02-07T10:31:57.028Z,7.10
2019-02-07T10:34:36.409Z,7.20
2019-02-07T10:37:19.894Z,7.20
2019-02-07T10:40:16.059Z,7.30
2019-02-07T10:42:55.365Z,7.40
2019-02-07T10:45:42.904Z,7.60
2019-02-07T10:48:28.919Z,7.70
2019-02-07T10:51:34.277Z,8.00
2019-02-07T10:54:20.391Z,8.10
2019-02-07T10:57:07.546Z,8.20
2019-02-07T10:59:54.544Z,8.20
2019-02-07T11:02:38.234Z,8.20
2019-02-07T11:05:28.844Z,8.20
2019-02-07T11:08:10.177Z,8.20
2019-02-07T11:11:02.746Z,8.30
2019-02-07T11:13:48.131Z,8.40
2019-02-07T11:16:47.538Z,8.50
2019-02-07T11:19:34.616Z,8.60
2019-02-07T11:22:10.755Z,8.60
2019-02-07T11:24:52.236Z,8.60
2019-02-07T11:27:38.087Z,8.70
2019-02-07T11:30:38.149Z,8.70
2019-02-07T11:33:12.396Z,8.70
2019-02-07T11:35:59.528Z,8.70
2019-02-07T11:38:46.581Z,8.60
2019-02-07T11:41:24.339Z,8.60
2019-02-07T11:44:26.635Z,8.60
2019-02-07T11:47:20.327Z,8.60
2019-02-07T11:50:15.067Z,8.60
2019-02-07T11:56:15.799Z,8.70
2019-02-07T11:58:54.450Z,8.70
2019-02-07T12:01:40.164Z,8.80
2019-02-07T12:04:26.507Z,8.80
2019-02-07T12:07:22.849Z,8.80
2019-02-07T12:10:08.935Z,8.80
2019-02-07T12:16:14.132Z,8.80
2019-02-07T12:19:21.901Z,8.70
2019-02-07T12:22:14.285Z,8.70
2019-02-07T12:25:05.061Z,8.80
2019-02-07T12:27:53.600Z,8.90
2019-02-07T12:30:42.466Z,9.00
2019-02-07T12:33:37.014Z,9.10
2019-02-07T12:58:44.365Z,9.60
2019-02-07T13:01:30.049Z,9.70
2019-02-07T13:04:16.273Z,9.70
2019-02-07T13:07:09.261Z,9.70
2019-02-07T13:09:54.608Z,9.70
2019-02-07T13:12:40.355Z,9.60
2019-02-07T13:15:31.271Z,9.60
2019-02-07T13:18:14.834Z,9.50
2019-02-07T13:20:50.123Z,9.50
2019-02-07T13:23:36.297Z,9.60
2019-02-07T13:26:16.019Z,9.60
2019-02-07T13:29:05.601Z,9.60
2019-02-07T13:31:47.716Z,9.70
2019-02-07T13:34:40.853Z,9.70
2019-02-07T13:37:26.135Z,9.70
2019-02-07T13:40:15.947Z,9.70
2019-02-07T13:43:00.021Z,9.80
2019-02-07T13:45:52.405Z,9.80
2019-02-07T13:48:43.079Z,9.90
2019-02-07T13:51:30.888Z,10.00
2019-02-07T13:54:18.117Z,10.00
2019-02-07T13:57:17.431Z,10.00
2019-02-07T14:00:03.157Z,10.00
2019-02-07T14:02:58.280Z,9.90
2019-02-07T14:05:49.103Z,9.80
2019-02-07T14:08:38.059Z,9.80
2019-02-07T14:11:18.856Z,9.80
2019-02-07T14:14:08.659Z,9.80
2019-02-07T14:16:54.458Z,9.80
2019-02-07T14:19:41.542Z,10.00
2019-02-07T14:22:28.510Z,10.10
2019-02-07T14:25:05.482Z,10.10
2019-02-07T14:27:51.207Z,10.10
2019-02-07T14:30:41.249Z,10.00
2019-02-07T14:33:28.529Z,10.00
2019-02-07T14:36:23.599Z,9.90
2019-02-07T14:39:09.563Z,9.90
2019-02-07T14:41:54.926Z,9.80
2019-02-07T14:44:54.086Z,9.80
2019-02-07T14:47:22.035Z,9.80
2019-02-07T14:49:49.588Z,9.70
2019-02-07T14:52:17.154Z,9.70
2019-02-07T14:54:49.488Z,9.70
2019-02-07T14:57:16.871Z,9.60
2019-02-07T14:59:44.519Z,9.60
2019-02-07T15:02:15.117Z,9.60
2019-02-07T15:04:42.689Z,9.50
2019-02-07T15:07:15.140Z,9.50
2019-02-07T15:10:16.341Z,9.50
2019-02-07T15:12:43.962Z,9.60
2019-02-07T15:15:13.215Z,9.60
2019-02-07T15:17:41.055Z,9.60
2019-02-07T15:20:08.736Z,9.50
2019-02-07T15:22:36.335Z,9.40
2019-02-07T15:25:05.642Z,9.40
2019-02-07T15:27:33.642Z,9.30
2019-02-07T15:30:01.300Z,9.20
2019-02-07T15:32:28.952Z,9.20
2019-02-07T15:34:56.679Z,9.10
2019-02-07T15:37:24.222Z,9.10
2019-02-07T15:39:52.007Z,9.10
2019-02-07T15:42:19.631Z,9.10
2019-02-07T15:44:47.627Z,9.10
2019-02-07T15:47:15.242Z,9.10
2019-02-07T15:49:43.372Z,9.00
2019-02-07T15:52:11.774Z,9.00
2019-02-07T15:54:39.459Z,8.90
2019-02-07T15:57:07.043Z,8.90
2019-02-07T15:59:45.791Z,8.90
2019-02-07T16:02:18.123Z,8.90
2019-02-07T16:04:46.561Z,8.90
2019-02-07T16:07:14.167Z,8.90
2019-02-07T16:09:41.952Z,8.90
2019-02-07T16:12:09.591Z,8.80
2019-02-07T16:14:37.338Z,8.80
2019-02-07T16:17:04.967Z,8.80
2019-02-07T16:19:32.567Z,8.70
2019-02-07T16:22:00.220Z,8.70
2019-02-07T16:24:27.765Z,8.70
2019-02-07T16:27:20.784Z,8.70
2019-02-07T16:30:00.493Z,8.70
2019-02-07T16:32:28.249Z,8.60
2019-02-07T16:34:55.869Z,8.60
2019-02-07T16:37:23.414Z,8.60
2019-02-07T16:39:51.549Z,8.50
2019-02-07T16:42:19.062Z,8.50
2019-02-07T16:44:49.157Z,8.50
2019-02-07T16:47:16.781Z,8.50
2019-02-07T16:49:44.463Z,8.40
2019-02-07T16:52:12.443Z,8.40
2019-02-07T16:54:40.160Z,8.40
2019-02-07T16:57:08.163Z,8.40
2019-02-07T16:59:35.802Z,8.50
2019-02-07T17:02:04.888Z,8.40
2019-02-07T17:04:32.566Z,8.40
2019-02-07T17:07:00.129Z,8.40
2019-02-07T17:09:45.988Z,8.30
2019-02-07T17:12:13.976Z,8.30
2019-02-07T17:14:41.732Z,8.30
2019-02-07T17:17:09.357Z,8.20
2019-02-07T17:19:37.309Z,8.20
2019-02-07T17:22:04.875Z,8.10
2019-02-07T17:24:32.557Z,8.10
2019-02-07T17:27:00.662Z,8.10
2019-02-07T17:29:28.275Z,8.10
2019-02-07T17:31:55.815Z,8.00
2019-02-07T17:34:23.435Z,8.00
2019-02-07T17:36:51.445Z,8.00
2019-02-07T17:39:18.917Z,8.00
2019-02-07T17:41:46.497Z,8.00
2019-02-07T17:44:14.595Z,8.00
2019-02-07T17:46:42.094Z,8.00
2019-02-07T17:49:09.902Z,8.00
2019-02-07T17:51:37.652Z,8.00
2019-02-07T17:54:05.149Z,8.00
2019-02-07T17:56:33.375Z,8.10
2019-02-07T17:59:00.923Z,8.10
2019-02-07T18:01:34.755Z,8.10
2019-02-07T18:04:02.173Z,8.10
2019-02-07T18:06:31.035Z,8.00
2019-02-07T18:08:58.339Z,8.00
2019-02-07T18:11:25.916Z,8.10
2019-02-07T18:13:53.467Z,8.00
2019-02-07T18:16:21.039Z,8.00
2019-02-07T18:18:49.165Z,8.00
2019-02-07T18:21:16.841Z,8.00
2019-02-07T18:23:44.469Z,8.00
2019-02-07T18:26:12.196Z,8.00
2019-02-07T18:28:39.730Z,8.00
2019-02-07T18:31:07.393Z,8.00
2019-02-07T18:33:54.660Z,8.00
2019-02-07T18:36:22.199Z,8.10
2019-02-07T18:38:49.641Z,8.00
2019-02-07T18:41:17.818Z,8.00
2019-02-07T18:43:45.515Z,8.00
2019-02-07T18:46:13.018Z,8.00
2019-02-07T18:48:41.999Z,8.10
2019-02-07T18:51:11.180Z,8.10
2019-02-07T18:53:39.019Z,8.10
2019-02-07T18:56:06.991Z,8.10
2019-02-07T18:58:34.705Z,8.10
2019-02-07T19:01:02.516Z,8.10
2019-02-07T19:03:30.644Z,8.10
2019-02-07T19:05:58.187Z,8.10
2019-02-07T19:08:26.849Z,8.10
2019-02-07T19:10:54.775Z,8.10
2019-02-07T19:13:22.733Z,8.10
2019-02-07T19:15:53.813Z,8.10
2019-02-07T19:18:21.435Z,8.10
2019-02-07T19:20:49.031Z,7.90
2019-02-07T19:23:16.848Z,7.80
2019-02-07T19:25:44.415Z,7.60
2019-02-07T19:28:11.776Z,7.40
2019-02-07T19:30:39.575Z,7.30
2019-02-07T19:33:07.180Z,7.20
2019-02-07T19:35:34.859Z,7.10
2019-02-07T19:38:03.291Z,7.00
2019-02-07T19:40:31.003Z,6.90
2019-02-07T19:42:59.069Z,6.90
2019-02-07T19:45:26.695Z,6.80
2019-02-07T19:47:54.439Z,6.70
2019-02-07T19:50:23.668Z,6.70
2019-02-07T19:52:51.319Z,6.70
2019-02-07T19:55:21.519Z,6.70
2019-02-07T19:57:49.193Z,6.70
2019-02-07T20:00:19.592Z,6.70
2019-02-07T20:02:47.349Z,6.70
2019-02-07T20:05:15.382Z,6.60
2019-02-07T20:07:43.102Z,6.60
2019-02-07T20:10:13.013Z,6.60
2019-02-07T20:12:42.552Z,6.50
2019-02-07T20:15:15.309Z,6.50
2019-02-07T20:17:43.025Z,6.50
2019-02-07T20:20:12.316Z,6.50
2019-02-07T20:22:40.111Z,6.40
2019-02-07T20:25:08.812Z,6.40
2019-02-07T20:27:36.454Z,6.40
2019-02-07T20:30:08.939Z,6.40
2019-02-07T20:32:36.818Z,6.40
2019-02-07T20:35:04.633Z,6.30
2019-02-07T20:37:32.401Z,6.30
2019-02-07T20:40:01.389Z,6.30
2019-02-07T20:42:30.032Z,6.30
2019-02-07T20:44:57.631Z,6.30
2019-02-07T20:47:25.185Z,6.30
2019-02-07T20:49:52.806Z,6.30
2019-02-07T20:52:27.119Z,6.30
2019-02-07T20:54:50.229Z,6.30
2019-02-07T20:57:17.855Z,6.30
2019-02-07T20:59:45.667Z,6.30
2019-02-07T21:02:13.200Z,6.30
2019-02-07T21:04:41.155Z,6.30
2019-02-07T21:07:09.200Z,6.30
2019-02-07T21:09:38.223Z,6.30
2019-02-07T21:12:09.162Z,6.30
2019-02-07T21:14:36.794Z,6.20
2019-02-07T21:17:04.327Z,6.20
2019-02-07T21:19:32.160Z,6.30
2019-02-07T21:22:01.190Z,6.20
2019-02-07T21:24:29.231Z,6.30
2019-02-07T21:26:57.474Z,6.30
2019-02-07T21:29:36.232Z,6.30
2019-02-07T21:32:15.515Z,6.30
2019-02-07T21:34:48.667Z,6.30
2019-02-07T21:37:18.523Z,6.30
2019-02-07T21:39:52.404Z,6.30
2019-02-07T21:42:32.494Z,6.30
2019-02-07T21:45:04.670Z,6.30
2019-02-07T21:47:32.556Z,6.30
2019-02-07T21:50:08.275Z,6.30
2019-02-07T21:52:42.158Z,6.40
2019-02-07T21:55:14.851Z,6.40
2019-02-07T21:57:54.174Z,6.40
2019-02-07T22:00:47.459Z,6.40
2019-02-07T22:03:33.004Z,6.40
2019-02-07T22:06:08.345Z,6.40
2019-02-07T22:11:42.778Z,6.40
2019-02-07T22:14:12.529Z,6.40
2019-02-07T22:16:47.303Z,6.40
2019-02-07T22:19:22.173Z,6.40
2019-02-07T22:21:55.434Z,6.40
2019-02-07T22:24:31.231Z,6.40
2019-02-07T22:27:19.026Z,6.40
2019-02-07T22:30:27.054Z,6.40
2019-02-07T22:33:00.641Z,6.40
2019-02-07T22:38:45.893Z,6.30
2019-02-07T22:41:15.148Z,6.30
2019-02-07T22:43:42.868Z,6.30
2019-02-07T22:46:16.924Z,6.30
2019-02-07T22:49:11.775Z,6.30
2019-02-07T22:51:41.584Z,6.30
2019-02-07T22:54:10.663Z,6.30
2019-02-07T22:56:45.542Z,6.30
2019-02-07T22:59:16.305Z,6.30
2019-02-07T23:02:01.550Z,6.30
2019-02-07T23:04:32.847Z,6.30
2019-02-07T23:07:05.196Z,6.30
2019-02-07T23:09:39.487Z,6.20
2019-02-07T23:12:14.984Z,6.30
2019-02-07T23:14:46.513Z,6.40
2019-02-07T23:17:20.549Z,6.50
2019-02-07T23:19:50.313Z,6.50
2019-02-07T23:22:19.230Z,6.50
2019-02-07T23:24:48.443Z,6.40
2019-02-07T23:27:16.015Z,6.40
2019-02-07T23:29:45.348Z,6.40
2019-02-07T23:32:16.291Z,6.40
2019-02-07T23:37:34.225Z,6.30
2019-02-07T23:40:07.314Z,6.30
2019-02-07T23:42:39.808Z,6.30
2019-02-07T23:45:09.539Z,6.20
2019-02-07T23:47:38.888Z,6.20
2019-02-07T23:50:07.540Z,6.20
2019-02-07T23:52:35.721Z,6.20
2019-02-07T23:55:06.645Z,6.20
2019-02-07T23:57:35.901Z,6.20
